Time;durP1;ratioP1;P1;durP2;ratioP2;P2;SDS_P1;SDS_P2;PMS_P1;PMS_P2;Temp;Humidity;BMP_temperature;BMP_pressure;BME280_temperature;BME280_humidity;BME280_pressure;Samples;Min_cycle;Max_cycle;Signal;HPM_P1;HPM_P2
2022/07/16 00:02:42;;;;;;;;;;;16.70;99.90;;;;;;4592576;19;19915;-34
2022/07/16 00:04:13;;;;;;;;;;;16.70;99.90;;;;;;4592288;19;19939;-36
2022/07/16 00:05:45;;;;;;;;;;;16.70;99.90;;;;;;4592283;19;19922;-36
2022/07/16 00:07:16;;;;;;;;;;;16.70;99.90;;;;;;4592276;19;19923;-34
2022/07/16 00:08:47;;;;;;;;;;;16.70;99.90;;;;;;4592425;19;19922;-38
2022/07/16 00:10:18;;;;;;;;;;;16.70;99.90;;;;;;4592496;19;20023;-36
2022/07/16 00:11:49;;;;;;;;;;;16.70;99.90;;;;;;4590123;19;19918;-33
2022/07/16 00:13:20;;;;;;;;;;;16.70;99.90;;;;;;4591634;19;19918;-35
2022/07/16 00:14:51;;;;;;;;;;;16.70;99.90;;;;;;4591065;19;20341;-40
2022/07/16 00:16:22;;;;;;;;;;;16.70;99.90;;;;;;4591861;19;19947;-38
2022/07/16 00:19:15;;;;;;;;;;;16.70;99.90;;;;;;4591961;19;20244;-40
2022/07/16 00:19:44;;;;;;;;;;;16.70;99.90;;;;;;4591635;19;20464;-40
2022/07/16 00:21:15;;;;;;;;;;;16.70;99.90;;;;;;4592147;19;19919;-34
2022/07/16 00:22:46;;;;;;;;;;;16.70;99.90;;;;;;4592561;19;19919;-35
2022/07/16 00:24:17;;;;;;;;;;;16.60;99.90;;;;;;4591884;19;19915;-34
2022/07/16 00:25:48;;;;;;;;;;;16.70;99.90;;;;;;4591561;19;19999;-33
2022/07/16 00:27:19;;;;;;;;;;;16.60;99.90;;;;;;4591846;19;20336;-37
2022/07/16 00:28:50;;;;;;;;;;;16.60;99.90;;;;;;4591297;19;20290;-34
2022/07/16 00:30:20;;;;;;;;;;;16.60;99.90;;;;;;4591216;19;19915;-37
2022/07/16 00:31:53;;;;;;;;;;;16.60;99.90;;;;;;4591522;19;20348;-37
2022/07/16 00:33:24;;;;;;;;;;;16.60;99.90;;;;;;4592098;19;20333;-33
2022/07/16 00:34:55;;;;;;;;;;;16.60;99.90;;;;;;4590451;19;19919;-34
2022/07/16 00:36:25;;;;;;;;;;;16.60;99.90;;;;;;4591449;19;19918;-35
2022/07/16 00:37:57;;;;;;;;;;;16.60;99.90;;;;;;4591756;19;20413;-36
2022/07/16 00:39:28;;;;;;;;;;;16.60;99.90;;;;;;4591601;19;19915;-31
2022/07/16 00:40:58;;;;;;;;;;;16.70;99.90;;;;;;4592182;19;19918;-34
2022/07/16 00:42:29;;;;;;;;;;;16.60;99.90;;;;;;4591353;19;19906;-32
2022/07/16 00:44:02;;;;;;;;;;;16.60;99.90;;;;;;4591763;19;20001;-36
2022/07/16 00:45:33;;;;;;;;;;;16.60;99.90;;;;;;4591406;19;19939;-32
2022/07/16 00:47:04;;;;;;;;;;;16.60;99.90;;;;;;4591318;19;19919;-40
2022/07/16 00:48:35;;;;;;;;;;;16.60;99.90;;;;;;4591264;19;20017;-40
2022/07/16 00:50:06;;;;;;;;;;;16.60;99.90;;;;;;4589305;19;19923;-33
2022/07/16 00:51:37;;;;;;;;;;;16.60;99.90;;;;;;4592807;19;19918;-32
2022/07/16 00:53:09;;;;;;;;;;;16.70;99.90;;;;;;4593442;19;19975;-35
2022/07/16 00:54:39;;;;;;;;;;;16.60;99.90;;;;;;4592994;19;20012;-34
2022/07/16 00:56:12;;;;;;;;;;;16.60;99.90;;;;;;4592357;19;19932;-37
2022/07/16 00:57:42;;;;;;;;;;;16.60;99.90;;;;;;4592830;19;20002;-40
2022/07/16 00:59:13;;;;;;;;;;;16.70;99.90;;;;;;4593357;19;20046;-35
2022/07/16 01:00:44;;;;;;;;;;;16.60;99.90;;;;;;4592428;19;19921;-37
2022/07/16 01:02:15;;;;;;;;;;;16.60;99.90;;;;;;4592979;19;19915;-34
2022/07/16 01:03:46;;;;;;;;;;;16.70;99.90;;;;;;4593035;19;19911;-37
2022/07/16 01:05:17;;;;;;;;;;;16.60;99.90;;;;;;4593377;19;19932;-37
2022/07/16 01:06:48;;;;;;;;;;;16.60;99.90;;;;;;4593248;19;19947;-37
2022/07/16 01:08:19;;;;;;;;;;;16.70;99.90;;;;;;4591848;19;19926;-38
2022/07/16 01:09:50;;;;;;;;;;;16.60;99.90;;;;;;4592453;19;19919;-36
2022/07/16 01:11:21;;;;;;;;;;;16.60;99.90;;;;;;4592385;19;19922;-32
2022/07/16 01:12:52;;;;;;;;;;;16.70;99.90;;;;;;4591996;19;19918;-35
2022/07/16 01:14:24;;;;;;;;;;;16.70;99.90;;;;;;4591887;19;19929;-36
2022/07/16 01:15:55;;;;;;;;;;;16.70;99.90;;;;;;4592826;19;19918;-41
2022/07/16 01:17:26;;;;;;;;;;;16.70;99.90;;;;;;4593531;19;20313;-34
2022/07/16 01:19:00;;;;;;;;;;;16.60;99.90;;;;;;4593128;19;20295;-38
2022/07/16 01:20:31;;;;;;;;;;;16.70;99.90;;;;;;4592572;19;19927;-40
2022/07/16 01:22:02;;;;;;;;;;;16.60;99.90;;;;;;4592766;19;19915;-38
2022/07/16 01:23:33;;;;;;;;;;;16.70;99.90;;;;;;4591512;19;20357;-32
2022/07/16 01:25:06;;;;;;;;;;;16.70;99.90;;;;;;4592402;19;19914;-36
2022/07/16 01:26:37;;;;;;;;;;;16.70;99.90;;;;;;4591600;19;19926;-38
2022/07/16 01:28:08;;;;;;;;;;;16.70;99.90;;;;;;4592622;19;19911;-36
2022/07/16 01:29:39;;;;;;;;;;;16.60;99.90;;;;;;4592822;19;19984;-34
2022/07/16 01:31:10;;;;;;;;;;;16.70;99.90;;;;;;4592425;19;19927;-37
2022/07/16 01:32:41;;;;;;;;;;;16.70;99.90;;;;;;4592472;19;20324;-34
2022/07/16 01:34:27;;;;;;;;;;;16.70;99.90;;;;;;4592349;19;19947;-35
2022/07/16 01:36:02;;;;;;;;;;;16.70;99.90;;;;;;4591358;19;19918;-37
2022/07/16 01:37:32;;;;;;;;;;;16.70;99.90;;;;;;4591457;19;19923;-34
2022/07/16 01:39:04;;;;;;;;;;;16.70;99.90;;;;;;4592134;19;19974;-33
2022/07/16 01:40:35;;;;;;;;;;;16.60;99.90;;;;;;4591601;19;19930;-40
2022/07/16 01:42:06;;;;;;;;;;;16.70;99.90;;;;;;4591994;19;19922;-38
2022/07/16 01:43:37;;;;;;;;;;;16.70;99.90;;;;;;4592050;19;19937;-35
2022/07/16 01:45:08;;;;;;;;;;;16.70;99.90;;;;;;4592221;19;20377;-33
2022/07/16 01:46:39;;;;;;;;;;;16.60;99.90;;;;;;4592952;19;19915;-39
2022/07/16 01:48:10;;;;;;;;;;;16.70;99.90;;;;;;4591237;19;19922;-35
2022/07/16 01:49:41;;;;;;;;;;;16.60;99.90;;;;;;4591633;19;19919;-35
2022/07/16 01:51:12;;;;;;;;;;;16.70;99.90;;;;;;4592314;19;19947;-40
2022/07/16 01:52:43;;;;;;;;;;;16.70;99.90;;;;;;4592593;19;19919;-39
2022/07/16 01:54:14;;;;;;;;;;;16.70;99.90;;;;;;4592546;19;19934;-36
2022/07/16 01:55:45;;;;;;;;;;;16.70;99.90;;;;;;4591041;19;19914;-38
2022/07/16 01:57:17;;;;;;;;;;;16.70;99.90;;;;;;4591914;19;19938;-35
2022/07/16 01:58:47;;;;;;;;;;;16.60;99.90;;;;;;4591153;19;19910;-35
2022/07/16 02:00:18;;;;;;;;;;;16.60;99.90;;;;;;4591453;19;19917;-32
2022/07/16 02:01:49;;;;;;;;;;;16.60;99.90;;;;;;4591737;19;19925;-34
2022/07/16 02:03:21;;;;;;;;;;;16.60;99.90;;;;;;4592358;19;19982;-33
2022/07/16 02:04:52;;;;;;;;;;;16.60;99.90;;;;;;4592120;19;19934;-33
2022/07/16 02:06:23;;;;;;;;;;;16.60;99.90;;;;;;4591682;19;19951;-33
2022/07/16 02:07:54;;;;;;;;;;;16.60;99.90;;;;;;4591681;19;19922;-36
2022/07/16 02:09:25;;;;;;;;;;;16.60;99.90;;;;;;4592315;19;19921;-36
2022/07/16 02:10:56;;;;;;;;;;;16.60;99.90;;;;;;4591883;19;19918;-33
2022/07/16 02:12:27;;;;;;;;;;;16.60;99.90;;;;;;4589703;19;19957;-37
2022/07/16 02:13:58;;;;;;;;;;;16.60;99.90;;;;;;4591283;19;19918;-35
2022/07/16 02:15:29;;;;;;;;;;;16.60;99.90;;;;;;4590743;19;19915;-35
2022/07/16 02:17:00;;;;;;;;;;;16.60;99.90;;;;;;4591411;19;20340;-33
2022/07/16 02:18:31;;;;;;;;;;;16.50;99.90;;;;;;4591726;19;19966;-36
2022/07/16 02:20:02;;;;;;;;;;;16.50;99.90;;;;;;4592015;19;19911;-33
2022/07/16 02:21:34;;;;;;;;;;;16.50;99.90;;;;;;4590531;19;19919;-34
2022/07/16 02:23:05;;;;;;;;;;;16.50;99.90;;;;;;4591167;19;19915;-35
2022/07/16 02:24:36;;;;;;;;;;;16.50;99.90;;;;;;4591694;19;19915;-33
2022/07/16 02:26:07;;;;;;;;;;;16.50;99.90;;;;;;4591725;19;19932;-33
2022/07/16 02:28:05;;;;;;;;;;;16.50;99.90;;;;;;4591801;19;19951;-33
2022/07/16 02:29:29;;;;;;;;;;;16.50;99.90;;;;;;4589087;19;19911;-37
2022/07/16 02:31:00;;;;;;;;;;;16.50;99.90;;;;;;4589540;19;19919;-37
2022/07/16 02:32:31;;;;;;;;;;;16.50;99.90;;;;;;4589252;19;19942;-33
2022/07/16 02:34:02;;;;;;;;;;;16.50;99.90;;;;;;4589074;19;19918;-38
2022/07/16 02:35:33;;;;;;;;;;;16.50;99.90;;;;;;4589239;19;19915;-36
2022/07/16 02:37:04;;;;;;;;;;;16.50;99.90;;;;;;4589457;19;19962;-37
2022/07/16 02:38:35;;;;;;;;;;;16.40;99.90;;;;;;4589543;19;19911;-34
2022/07/16 02:40:07;;;;;;;;;;;16.40;99.90;;;;;;4589285;19;19954;-34
2022/07/16 02:41:38;;;;;;;;;;;16.40;99.90;;;;;;4589192;19;19932;-36
2022/07/16 02:43:09;;;;;;;;;;;16.40;99.90;;;;;;4589072;19;19989;-38
2022/07/16 02:44:40;;;;;;;;;;;16.40;99.90;;;;;;4589541;19;19907;-37
2022/07/16 02:46:11;;;;;;;;;;;16.40;99.90;;;;;;4588895;19;20312;-36
2022/07/16 02:47:42;;;;;;;;;;;16.40;99.90;;;;;;4589072;19;19919;-34
2022/07/16 02:49:13;;;;;;;;;;;16.40;99.90;;;;;;4588949;19;19926;-33
2022/07/16 02:50:44;;;;;;;;;;;16.40;99.90;;;;;;4589140;19;19915;-33
2022/07/16 02:52:15;;;;;;;;;;;16.40;99.90;;;;;;4588733;19;19919;-39
2022/07/16 02:53:46;;;;;;;;;;;16.40;99.90;;;;;;4588834;19;19926;-37
2022/07/16 02:55:17;;;;;;;;;;;16.40;99.90;;;;;;4587834;19;19945;-36
2022/07/16 02:56:48;;;;;;;;;;;16.40;99.90;;;;;;4589008;19;19919;-36
2022/07/16 02:58:19;;;;;;;;;;;16.40;99.90;;;;;;4588730;19;19926;-37
2022/07/16 02:59:50;;;;;;;;;;;16.40;99.90;;;;;;4589048;19;19914;-35
2022/07/16 03:01:21;;;;;;;;;;;16.40;99.90;;;;;;4590569;19;20260;-35
2022/07/16 03:02:51;;;;;;;;;;;16.40;99.90;;;;;;4589727;19;19974;-35
2022/07/16 03:04:23;;;;;;;;;;;16.40;99.90;;;;;;4590309;19;19918;-35
2022/07/16 03:05:54;;;;;;;;;;;16.40;99.90;;;;;;4590920;19;20248;-34
2022/07/16 03:07:24;;;;;;;;;;;16.40;99.90;;;;;;4591407;19;20253;-37
2022/07/16 03:08:55;;;;;;;;;;;16.40;99.90;;;;;;4590558;19;19922;-33
2022/07/16 03:10:27;;;;;;;;;;;16.40;99.90;;;;;;4590672;19;19922;-36
2022/07/16 03:11:58;;;;;;;;;;;16.40;99.90;;;;;;4589972;19;19937;-33
2022/07/16 03:13:28;;;;;;;;;;;16.40;99.90;;;;;;4592480;19;19919;-33
2022/07/16 03:15:02;;;;;;;;;;;16.40;99.90;;;;;;4594045;19;19926;-33
2022/07/16 03:16:33;;;;;;;;;;;16.40;99.90;;;;;;4595343;19;20303;-34
2022/07/16 03:18:04;;;;;;;;;;;16.40;99.90;;;;;;4594859;19;19911;-35
2022/07/16 03:19:35;;;;;;;;;;;16.40;99.90;;;;;;4595732;19;20273;-34
2022/07/16 03:21:06;;;;;;;;;;;16.40;99.90;;;;;;4595398;19;20222;-39
2022/07/16 03:24:31;;;;;;;;;;;16.40;99.90;;;;;;4595316;19;19911;-34
2022/07/16 03:26:02;;;;;;;;;;;16.40;99.90;;;;;;4595759;19;19915;-37
2022/07/16 03:27:33;;;;;;;;;;;16.40;99.90;;;;;;4595085;19;19917;-32
2022/07/16 03:29:04;;;;;;;;;;;16.40;99.90;;;;;;4595126;19;20311;-34
2022/07/16 03:30:35;;;;;;;;;;;16.40;99.90;;;;;;4595597;19;19918;-34
2022/07/16 03:32:06;;;;;;;;;;;16.40;99.90;;;;;;4595642;19;19935;-37
2022/07/16 03:33:37;;;;;;;;;;;16.40;99.90;;;;;;4595030;19;19938;-37
2022/07/16 03:35:08;;;;;;;;;;;16.40;99.90;;;;;;4593681;19;20266;-35
2022/07/16 03:36:39;;;;;;;;;;;16.40;99.90;;;;;;4595369;19;19934;-34
2022/07/16 03:40:00;;;;;;;;;;;16.40;99.90;;;;;;4594940;19;19910;-34
2022/07/16 03:41:31;;;;;;;;;;;16.50;99.90;;;;;;4595117;19;19911;-34
2022/07/16 03:43:02;;;;;;;;;;;16.50;99.90;;;;;;4594990;19;19981;-36
2022/07/16 03:44:34;;;;;;;;;;;16.50;99.90;;;;;;4593708;19;20333;-36
2022/07/16 03:46:05;;;;;;;;;;;16.50;99.90;;;;;;4593889;19;20260;-36
2022/07/16 03:47:36;;;;;;;;;;;16.40;99.90;;;;;;4594361;19;20319;-36
2022/07/16 03:49:07;;;;;;;;;;;16.50;99.90;;;;;;4595683;19;19915;-37
2022/07/16 03:50:38;;;;;;;;;;;16.50;99.90;;;;;;4594378;19;20018;-34
2022/07/16 03:52:09;;;;;;;;;;;16.50;99.90;;;;;;4594834;19;19919;-36
2022/07/16 03:53:41;;;;;;;;;;;16.50;99.90;;;;;;4594756;19;20244;-35
2022/07/16 03:55:12;;;;;;;;;;;16.50;99.90;;;;;;4593479;19;19911;-37
2022/07/16 03:56:43;;;;;;;;;;;16.50;99.90;;;;;;4594369;19;20301;-40
2022/07/16 03:58:13;;;;;;;;;;;16.50;99.90;;;;;;4594404;19;19946;-35
2022/07/16 03:59:45;;;;;;;;;;;16.50;99.90;;;;;;4594563;19;19919;-35
2022/07/16 04:01:16;;;;;;;;;;;16.50;99.90;;;;;;4594414;19;19915;-37
2022/07/16 04:02:47;;;;;;;;;;;16.50;99.90;;;;;;4594520;19;19927;-36
2022/07/16 04:04:18;;;;;;;;;;;16.50;99.90;;;;;;4593505;19;19915;-34
2022/07/16 04:05:50;;;;;;;;;;;16.50;99.90;;;;;;4594055;19;19914;-37
2022/07/16 04:07:21;;;;;;;;;;;16.50;99.90;;;;;;4594174;19;19914;-34
2022/07/16 04:08:52;;;;;;;;;;;16.50;99.90;;;;;;4594180;19;20336;-40
2022/07/16 04:10:22;;;;;;;;;;;16.50;99.90;;;;;;4594744;19;19914;-33
2022/07/16 04:11:55;;;;;;;;;;;16.50;99.90;;;;;;4592427;19;19930;-34
2022/07/16 04:13:26;;;;;;;;;;;16.50;99.90;;;;;;4594265;19;19919;-35
2022/07/16 04:14:57;;;;;;;;;;;16.50;99.90;;;;;;4593162;19;19918;-32
2022/07/16 04:16:28;;;;;;;;;;;16.50;99.90;;;;;;4592942;19;20329;-32
2022/07/16 04:17:59;;;;;;;;;;;16.50;99.90;;;;;;4591715;19;20233;-35
2022/07/16 04:19:30;;;;;;;;;;;16.50;99.90;;;;;;4593217;19;19941;-35
2022/07/16 04:21:01;;;;;;;;;;;16.50;99.90;;;;;;4594103;19;19911;-32
2022/07/16 04:22:32;;;;;;;;;;;16.50;99.90;;;;;;4594226;19;19917;-33
2022/07/16 04:24:03;;;;;;;;;;;16.50;99.90;;;;;;4593822;19;20325;-35
2022/07/16 04:25:34;;;;;;;;;;;16.50;99.90;;;;;;4591336;19;19971;-36
2022/07/16 04:27:05;;;;;;;;;;;16.60;99.90;;;;;;4594020;19;19915;-35
2022/07/16 04:28:36;;;;;;;;;;;16.50;99.90;;;;;;4594508;19;19938;-36
2022/07/16 04:30:08;;;;;;;;;;;16.50;99.90;;;;;;4593805;19;19922;-35
2022/07/16 04:31:39;;;;;;;;;;;16.50;99.90;;;;;;4593915;19;19923;-38
2022/07/16 04:33:10;;;;;;;;;;;16.60;99.90;;;;;;4594224;19;19915;-34
2022/07/16 04:34:41;;;;;;;;;;;16.60;99.90;;;;;;4592093;19;19914;-36
2022/07/16 04:36:12;;;;;;;;;;;16.50;99.90;;;;;;4593152;19;19941;-35
2022/07/16 04:37:43;;;;;;;;;;;16.60;99.90;;;;;;4594027;19;19923;-32
2022/07/16 04:39:14;;;;;;;;;;;16.60;99.90;;;;;;4594136;19;19914;-36
2022/07/16 04:40:45;;;;;;;;;;;16.60;99.90;;;;;;4593893;19;19922;-38
2022/07/16 04:42:16;;;;;;;;;;;16.60;99.90;;;;;;4593818;19;19926;-34
2022/07/16 04:43:47;;;;;;;;;;;16.60;99.90;;;;;;4594060;19;19911;-37
2022/07/16 04:45:18;;;;;;;;;;;16.70;99.90;;;;;;4593840;19;19926;-37
2022/07/16 04:46:49;;;;;;;;;;;16.70;99.90;;;;;;4592420;19;19907;-37
2022/07/16 04:48:20;;;;;;;;;;;16.70;99.90;;;;;;4592970;19;19927;-35
2022/07/16 04:49:51;;;;;;;;;;;16.70;99.90;;;;;;4593879;19;20325;-33
2022/07/16 04:51:22;;;;;;;;;;;16.70;99.90;;;;;;4594028;19;19923;-36
2022/07/16 04:52:53;;;;;;;;;;;16.70;99.90;;;;;;4593548;19;19951;-40
2022/07/16 04:54:24;;;;;;;;;;;16.70;99.90;;;;;;4593339;19;19919;-35
2022/07/16 04:55:55;;;;;;;;;;;16.70;99.90;;;;;;4593453;19;19970;-34
2022/07/16 04:57:26;;;;;;;;;;;16.80;99.90;;;;;;4593473;19;19926;-33
2022/07/16 04:58:57;;;;;;;;;;;16.80;99.90;;;;;;4592452;19;19981;-34
2022/07/16 05:00:28;;;;;;;;;;;16.80;99.90;;;;;;4592027;19;19918;-36
2022/07/16 05:03:49;;;;;;;;;;;16.80;99.90;;;;;;4593655;19;19932;-33
2022/07/16 05:05:20;;;;;;;;;;;16.80;99.90;;;;;;4592826;19;19922;-33
2022/07/16 05:06:51;;;;;;;;;;;16.80;99.90;;;;;;4591444;19;19918;-37
2022/07/16 05:08:22;;;;;;;;;;;16.80;99.90;;;;;;4591906;19;19978;-35
2022/07/16 05:09:53;;;;;;;;;;;16.80;99.90;;;;;;4591503;19;20357;-32
2022/07/16 05:11:24;;;;;;;;;;;16.80;99.90;;;;;;4591317;19;19978;-33
2022/07/16 05:12:55;;;;;;;;;;;16.90;99.90;;;;;;4593183;19;20036;-35
2022/07/16 05:14:26;;;;;;;;;;;16.90;99.90;;;;;;4593407;19;19927;-34
2022/07/16 05:15:57;;;;;;;;;;;16.90;99.90;;;;;;4593315;19;20600;-38
2022/07/16 05:17:43;;;;;;;;;;;16.90;99.90;;;;;;4593038;19;19978;-34
2022/07/16 05:19:14;;;;;;;;;;;17.00;99.90;;;;;;4593469;19;19927;-40
2022/07/16 05:20:45;;;;;;;;;;;17.00;99.90;;;;;;4591768;19;19925;-38
2022/07/16 05:22:16;;;;;;;;;;;17.00;99.90;;;;;;4591273;19;19915;-34
2022/07/16 05:23:47;;;;;;;;;;;17.00;99.90;;;;;;4591049;19;19962;-32
2022/07/16 05:25:18;;;;;;;;;;;17.00;99.90;;;;;;4591104;19;19982;-35
2022/07/16 05:26:50;;;;;;;;;;;17.00;99.90;;;;;;4592299;19;19919;-33
2022/07/16 05:28:20;;;;;;;;;;;17.10;99.90;;;;;;4592530;19;19939;-35
2022/07/16 05:29:51;;;;;;;;;;;17.10;99.90;;;;;;4592746;19;19922;-37
2022/07/16 05:31:23;;;;;;;;;;;17.10;99.90;;;;;;4592309;19;19919;-37
2022/07/16 05:32:54;;;;;;;;;;;17.10;99.90;;;;;;4592143;19;19984;-39
2022/07/16 05:34:25;;;;;;;;;;;17.10;99.90;;;;;;4589821;19;20333;-42
2022/07/16 05:35:56;;;;;;;;;;;17.10;99.90;;;;;;4590273;19;19923;-37
2022/07/16 05:37:27;;;;;;;;;;;17.10;99.90;;;;;;4590559;19;19946;-38
2022/07/16 05:38:58;;;;;;;;;;;17.10;99.90;;;;;;4590765;19;19918;-33
2022/07/16 05:40:29;;;;;;;;;;;17.10;99.90;;;;;;4593205;19;19919;-38
2022/07/16 05:42:00;;;;;;;;;;;17.10;99.90;;;;;;4591654;19;19998;-38
2022/07/16 05:43:31;;;;;;;;;;;17.10;99.90;;;;;;4592289;19;19936;-37
2022/07/16 05:45:02;;;;;;;;;;;17.10;99.90;;;;;;4591936;19;19918;-35
2022/07/16 05:46:33;;;;;;;;;;;17.10;99.90;;;;;;4591570;19;19970;-40
2022/07/16 05:48:04;;;;;;;;;;;17.10;99.90;;;;;;4591150;19;19926;-37
2022/07/16 05:49:35;;;;;;;;;;;17.10;99.90;;;;;;4591020;19;20653;-36
2022/07/16 05:51:06;;;;;;;;;;;17.10;99.90;;;;;;4590280;19;19907;-34
2022/07/16 05:52:37;;;;;;;;;;;17.10;99.90;;;;;;4590738;19;19923;-41
2022/07/16 05:54:08;;;;;;;;;;;17.20;99.90;;;;;;4591880;19;19919;-35
2022/07/16 05:55:39;;;;;;;;;;;17.20;99.90;;;;;;4590884;19;20340;-39
2022/07/16 05:57:10;;;;;;;;;;;17.10;99.90;;;;;;4592286;19;19918;-34
2022/07/16 05:58:41;;;;;;;;;;;17.20;99.90;;;;;;4591646;19;19932;-36
2022/07/16 06:00:12;;;;;;;;;;;17.20;99.90;;;;;;4591751;19;20331;-36
2022/07/16 06:01:44;;;;;;;;;;;17.20;99.90;;;;;;4588539;19;19919;-36
2022/07/16 06:03:15;;;;;;;;;;;17.20;99.90;;;;;;4590050;19;20304;-37
2022/07/16 06:04:46;;;;;;;;;;;17.20;99.90;;;;;;4590120;19;19936;-39
2022/07/16 06:06:17;;;;;;;;;;;17.20;99.90;;;;;;4590338;19;20364;-38
2022/07/16 06:07:48;;;;;;;;;;;17.30;99.90;;;;;;4592758;19;20255;-41
2022/07/16 06:09:19;;;;;;;;;;;17.30;99.90;;;;;;4592272;19;19926;-38
2022/07/16 06:10:49;;;;;;;;;;;17.30;99.90;;;;;;4591467;19;19918;-37
2022/07/16 06:12:20;;;;;;;;;;;17.30;99.90;;;;;;4590794;19;19926;-37
2022/07/16 06:13:52;;;;;;;;;;;17.30;99.90;;;;;;4591476;19;19917;-33
2022/07/16 06:15:26;;;;;;;;;;;17.30;99.90;;;;;;4589266;19;19918;-35
2022/07/16 06:16:57;;;;;;;;;;;17.30;99.90;;;;;;4590533;19;19978;-39
2022/07/16 06:18:27;;;;;;;;;;;17.30;99.90;;;;;;4590288;19;19923;-39
2022/07/16 06:19:59;;;;;;;;;;;17.40;99.90;;;;;;4592457;19;19919;-37
2022/07/16 06:21:30;;;;;;;;;;;17.40;99.90;;;;;;4591017;19;19918;-34
2022/07/16 06:23:00;;;;;;;;;;;17.40;99.90;;;;;;4591341;19;19914;-37
2022/07/16 06:24:31;;;;;;;;;;;17.40;99.90;;;;;;4589787;19;19914;-32
2022/07/16 06:26:02;;;;;;;;;;;17.40;99.90;;;;;;4590218;19;19919;-39
2022/07/16 06:27:34;;;;;;;;;;;17.40;99.90;;;;;;4590893;19;19922;-37
2022/07/16 06:29:05;;;;;;;;;;;17.40;99.90;;;;;;4589906;19;20321;-35
2022/07/16 06:30:36;;;;;;;;;;;17.40;99.90;;;;;;4589597;19;19911;-35
2022/07/16 06:32:07;;;;;;;;;;;17.40;99.90;;;;;;4589640;19;19955;-39
2022/07/16 06:33:38;;;;;;;;;;;17.40;99.90;;;;;;4592065;19;19915;-35
2022/07/16 06:35:09;;;;;;;;;;;17.50;99.90;;;;;;4589907;19;19914;-33
2022/07/16 06:36:40;;;;;;;;;;;17.50;99.90;;;;;;4591104;19;20000;-37
2022/07/16 06:38:12;;;;;;;;;;;17.50;99.90;;;;;;4591503;19;19919;-34
2022/07/16 06:39:43;;;;;;;;;;;17.50;99.90;;;;;;4592084;19;19922;-32
2022/07/16 06:41:15;;;;;;;;;;;17.50;99.90;;;;;;4591325;19;19933;-37
2022/07/16 06:42:46;;;;;;;;;;;17.50;99.90;;;;;;4590787;19;19925;-33
2022/07/16 06:44:18;;;;;;;;;;;17.50;99.90;;;;;;4591237;19;19914;-33
2022/07/16 06:45:50;;;;;;;;;;;17.60;99.90;;;;;;4591242;19;19914;-38
2022/07/16 06:47:21;;;;;;;;;;;17.60;99.90;;;;;;4591280;19;19937;-36
2022/07/16 06:48:52;;;;;;;;;;;17.50;99.90;;;;;;4589524;19;19919;-34
2022/07/16 06:50:24;;;;;;;;;;;17.60;99.90;;;;;;4591532;19;20265;-31
2022/07/16 06:51:55;;;;;;;;;;;17.60;99.90;;;;;;4590660;19;20337;-33
2022/07/16 06:53:26;;;;;;;;;;;17.70;99.90;;;;;;4590310;19;19931;-35
2022/07/16 06:54:57;;;;;;;;;;;17.70;99.90;;;;;;4589770;19;20333;-35
2022/07/16 06:56:28;;;;;;;;;;;17.70;99.90;;;;;;4591679;19;19919;-31
2022/07/16 06:57:59;;;;;;;;;;;17.80;99.90;;;;;;4591072;19;20339;-34
2022/07/16 06:59:30;;;;;;;;;;;17.80;99.90;;;;;;4590876;19;19918;-34
2022/07/16 07:01:01;;;;;;;;;;;17.80;99.90;;;;;;4590572;19;19915;-35
2022/07/16 07:02:32;;;;;;;;;;;17.80;99.90;;;;;;4590178;19;19982;-33
2022/07/16 07:04:03;;;;;;;;;;;17.80;99.90;;;;;;4589649;19;19923;-36
2022/07/16 07:05:34;;;;;;;;;;;17.80;99.90;;;;;;4590199;19;20337;-38
2022/07/16 07:07:05;;;;;;;;;;;17.80;99.90;;;;;;4590893;19;20379;-33
2022/07/16 07:08:36;;;;;;;;;;;17.80;99.90;;;;;;4589975;19;19919;-36
2022/07/16 07:10:07;;;;;;;;;;;17.80;99.90;;;;;;4591330;19;19918;-35
2022/07/16 07:11:39;;;;;;;;;;;17.80;99.90;;;;;;4589428;19;19974;-39
2022/07/16 07:13:09;;;;;;;;;;;17.90;99.90;;;;;;4590768;19;20252;-36
2022/07/16 07:14:41;;;;;;;;;;;17.90;99.90;;;;;;4589947;19;19919;-33
2022/07/16 07:16:12;;;;;;;;;;;17.90;99.90;;;;;;4591187;19;19925;-39
2022/07/16 07:17:42;;;;;;;;;;;17.90;99.90;;;;;;4590973;19;19929;-38
2022/07/16 07:19:13;;;;;;;;;;;18.00;99.90;;;;;;4589734;19;19929;-38
2022/07/16 07:23:09;;;;;;;;;;;18.00;99.90;;;;;;4590675;19;19907;-32
2022/07/16 07:24:40;;;;;;;;;;;18.00;99.90;;;;;;4590991;19;19922;-34
2022/07/16 07:26:11;;;;;;;;;;;18.00;99.90;;;;;;4589921;19;20321;-35
2022/07/16 07:27:42;;;;;;;;;;;18.00;99.90;;;;;;4589524;19;19932;-33
2022/07/16 07:29:13;;;;;;;;;;;18.00;99.90;;;;;;4589093;19;19922;-33
2022/07/16 07:30:44;;;;;;;;;;;18.00;99.90;;;;;;4587593;19;19933;-33
2022/07/16 07:32:15;;;;;;;;;;;18.00;99.90;;;;;;4587995;19;19952;-38
2022/07/16 07:33:46;;;;;;;;;;;18.00;99.90;;;;;;4591437;19;19922;-38
2022/07/16 07:35:17;;;;;;;;;;;18.00;99.90;;;;;;4589991;19;19918;-36
2022/07/16 07:36:48;;;;;;;;;;;18.10;99.90;;;;;;4590384;19;19934;-37
2022/07/16 07:38:19;;;;;;;;;;;18.10;99.90;;;;;;4590205;19;19966;-36
2022/07/16 07:39:51;;;;;;;;;;;18.10;99.90;;;;;;4590268;19;19945;-36
2022/07/16 07:41:21;;;;;;;;;;;18.20;99.90;;;;;;4590503;19;19914;-32
2022/07/16 07:42:54;;;;;;;;;;;18.20;99.90;;;;;;4588899;19;19948;-36
2022/07/16 07:44:25;;;;;;;;;;;18.20;99.90;;;;;;4591258;19;20639;-33
2022/07/16 07:45:57;;;;;;;;;;;18.20;99.90;;;;;;4589300;19;19934;-35
2022/07/16 07:47:28;;;;;;;;;;;18.20;99.90;;;;;;4590136;19;20333;-37
2022/07/16 07:48:59;;;;;;;;;;;18.20;99.90;;;;;;4590628;19;19971;-40
2022/07/16 07:50:30;;;;;;;;;;;18.20;99.90;;;;;;4590718;19;19926;-39
2022/07/16 07:52:01;;;;;;;;;;;18.20;99.90;;;;;;4590023;19;19914;-35
2022/07/16 07:53:34;;;;;;;;;;;18.30;99.90;;;;;;4589699;19;19926;-36
2022/07/16 07:55:05;;;;;;;;;;;18.30;99.90;;;;;;4588556;19;19919;-38
2022/07/16 07:56:36;;;;;;;;;;;18.30;99.90;;;;;;4567377;19;19926;-34
2022/07/16 07:58:08;;;;;;;;;;;18.30;99.90;;;;;;4588707;19;19919;-33
2022/07/16 07:59:38;;;;;;;;;;;18.30;99.90;;;;;;4590181;19;19978;-36
2022/07/16 08:01:10;;;;;;;;;;;18.30;99.90;;;;;;4593214;19;19933;-35
2022/07/16 08:02:44;;;;;;;;;;;18.30;99.90;;;;;;4592710;19;19918;-37
2022/07/16 08:04:15;;;;;;;;;;;18.30;99.90;;;;;;4594937;19;20007;-38
2022/07/16 08:05:46;;;;;;;;;;;18.30;99.90;;;;;;4593299;19;20342;-32
2022/07/16 08:07:17;;;;;;;;;;;18.40;99.90;;;;;;4593677;19;20305;-32
2022/07/16 08:08:49;;;;;;;;;;;18.40;99.90;;;;;;4593739;19;19922;-33
2022/07/16 08:10:20;;;;;;;;;;;18.40;99.90;;;;;;4594711;19;19974;-34
2022/07/16 08:11:51;;;;;;;;;;;18.40;99.90;;;;;;4592895;19;19919;-33
2022/07/16 08:13:21;;;;;;;;;;;18.40;99.90;;;;;;4594440;19;19931;-38
2022/07/16 08:14:53;;;;;;;;;;;18.40;99.90;;;;;;4593433;19;20306;-35
2022/07/16 08:16:23;;;;;;;;;;;18.40;99.90;;;;;;4594690;19;19918;-36
2022/07/16 08:17:54;;;;;;;;;;;18.50;99.90;;;;;;4594370;19;19915;-35
2022/07/16 08:19:25;;;;;;;;;;;18.50;99.90;;;;;;4593888;19;20333;-38
2022/07/16 08:20:57;;;;;;;;;;;18.40;99.90;;;;;;4594038;19;20344;-39
2022/07/16 08:22:27;;;;;;;;;;;18.50;99.90;;;;;;4593050;19;19914;-40
2022/07/16 08:26:08;;;;;;;;;;;18.50;99.90;;;;;;4591948;19;20006;-39
2022/07/16 08:27:39;;;;;;;;;;;18.50;99.90;;;;;;4591840;19;20329;-36
2022/07/16 08:29:10;;;;;;;;;;;18.50;99.90;;;;;;4591912;19;19918;-33
2022/07/16 08:30:41;;;;;;;;;;;18.50;99.90;;;;;;4591762;19;20257;-38
2022/07/16 08:32:12;;;;;;;;;;;18.50;99.90;;;;;;4591959;19;19918;-34
2022/07/16 08:33:43;;;;;;;;;;;18.50;99.90;;;;;;4591564;19;19918;-35
2022/07/16 08:35:14;;;;;;;;;;;18.50;99.90;;;;;;4590608;19;19919;-36
2022/07/16 08:36:45;;;;;;;;;;;18.60;99.90;;;;;;4591873;19;19922;-37
2022/07/16 08:38:16;;;;;;;;;;;18.60;99.90;;;;;;4590491;19;19926;-35
2022/07/16 08:39:47;;;;;;;;;;;18.60;99.90;;;;;;4591664;19;20003;-33
2022/07/16 08:41:18;;;;;;;;;;;18.60;99.90;;;;;;4591650;19;20052;-35
2022/07/16 08:42:49;;;;;;;;;;;18.60;99.90;;;;;;4591930;19;19929;-33
2022/07/16 08:44:20;;;;;;;;;;;18.60;99.90;;;;;;4591885;19;19936;-35
2022/07/16 08:45:51;;;;;;;;;;;18.60;99.90;;;;;;4591338;19;20360;-37
2022/07/16 08:47:22;;;;;;;;;;;18.60;99.90;;;;;;4591487;19;19923;-42
2022/07/16 08:48:53;;;;;;;;;;;18.60;99.90;;;;;;4591878;19;19929;-33
2022/07/16 08:50:24;;;;;;;;;;;18.70;99.90;;;;;;4591149;19;20393;-35
2022/07/16 08:51:57;;;;;;;;;;;18.60;99.90;;;;;;4591264;19;19917;-35
2022/07/16 08:53:28;;;;;;;;;;;18.70;99.90;;;;;;4585957;19;20730;-38
2022/07/16 08:54:59;;;;;;;;;;;18.70;99.90;;;;;;4588691;19;19919;-37
2022/07/16 08:56:30;;;;;;;;;;;18.70;99.90;;;;;;4590525;19;20337;-40
2022/07/16 08:58:01;;;;;;;;;;;18.70;99.90;;;;;;4592369;19;19927;-35
2022/07/16 08:59:32;;;;;;;;;;;18.70;99.90;;;;;;4593327;19;19923;-37
2022/07/16 09:01:03;;;;;;;;;;;18.70;99.90;;;;;;4594178;19;19980;-36
2022/07/16 09:02:35;;;;;;;;;;;18.70;99.90;;;;;;4591005;19;19986;-40